sensor_id;sensor_type;location;lat;lon;timestamp;temperature;humidity
56322;DHT22;42227;6.376;-10.782;2023-12-20T00:02:04;27.30;1.00
56322;DHT22;42227;6.376;-10.782;2023-12-20T00:04:33;27.70;1.00
56322;DHT22;42227;6.376;-10.782;2023-12-20T00:07:01;27.60;1.00
56322;DHT22;42227;6.376;-10.782;2023-12-20T00:09:30;27.40;1.00
56322;DHT22;42227;6.376;-10.782;2023-12-20T00:11:58;27.30;1.00
56322;DHT22;42227;6.376;-10.782;2023-12-20T00:14:27;27.20;1.00
56322;DHT22;42227;6.376;-10.782;2023-12-20T00:16:55;27.40;1.00
56322;DHT22;42227;6.376;-10.782;2023-12-20T00:19:24;27.90;99.90
56322;DHT22;42227;6.376;-10.782;2023-12-20T00:21:52;28.10;99.90
56322;DHT22;42227;6.376;-10.782;2023-12-20T00:24:21;27.80;99.90
56322;DHT22;42227;6.376;-10.782;2023-12-20T00:26:50;27.40;99.90
56322;DHT22;42227;6.376;-10.782;2023-12-20T00:29:18;27.20;99.90
56322;DHT22;42227;6.376;-10.782;2023-12-20T00:31:46;27.10;99.90
56322;DHT22;42227;6.376;-10.782;2023-12-20T00:34:15;27.40;99.90
56322;DHT22;42227;6.376;-10.782;2023-12-20T00:36:43;27.70;99.90
56322;DHT22;42227;6.376;-10.782;2023-12-20T00:39:12;27.60;99.90
56322;DHT22;42227;6.376;-10.782;2023-12-20T00:41:40;27.20;99.90
56322;DHT22;42227;6.376;-10.782;2023-12-20T00:44:09;27.00;99.90
56322;DHT22;42227;6.376;-10.782;2023-12-20T00:46:37;26.90;99.90
56322;DHT22;42227;6.376;-10.782;2023-12-20T00:49:05;27.00;99.90
56322;DHT22;42227;6.376;-10.782;2023-12-20T00:51:34;27.40;99.90
56322;DHT22;42227;6.376;-10.782;2023-12-20T00:54:02;27.60;99.90
56322;DHT22;42227;6.376;-10.782;2023-12-20T00:56:30;27.30;99.90
56322;DHT22;42227;6.376;-10.782;2023-12-20T00:58:59;26.90;99.90
56322;DHT22;42227;6.376;-10.782;2023-12-20T01:01:27;26.70;99.90
56322;DHT22;42227;6.376;-10.782;2023-12-20T01:03:55;26.60;99.90
56322;DHT22;42227;6.376;-10.782;2023-12-20T01:06:24;26.70;1.00
56322;DHT22;42227;6.376;-10.782;2023-12-20T01:08:52;26.90;99.90
56322;DHT22;42227;6.376;-10.782;2023-12-20T01:11:20;26.90;99.90
56322;DHT22;42227;6.376;-10.782;2023-12-20T01:13:49;26.70;99.90
56322;DHT22;42227;6.376;-10.782;2023-12-20T01:16:17;26.60;1.00
56322;DHT22;42227;6.376;-10.782;2023-12-20T01:18:45;26.60;1.00
56322;DHT22;42227;6.376;-10.782;2023-12-20T01:21:14;26.60;99.90
56322;DHT22;42227;6.376;-10.782;2023-12-20T01:23:42;26.90;99.90
56322;DHT22;42227;6.376;-10.782;2023-12-20T01:26:11;27.30;99.90
56322;DHT22;42227;6.376;-10.782;2023-12-20T01:28:39;27.20;99.90
56322;DHT22;42227;6.376;-10.782;2023-12-20T01:31:08;27.00;99.90
56322;DHT22;42227;6.376;-10.782;2023-12-20T01:33:36;26.80;99.90
56322;DHT22;42227;6.376;-10.782;2023-12-20T01:36:05;26.70;99.90
56322;DHT22;42227;6.376;-10.782;2023-12-20T01:38:34;26.70;99.90
56322;DHT22;42227;6.376;-10.782;2023-12-20T01:41:02;27.00;99.90
56322;DHT22;42227;6.376;-10.782;2023-12-20T01:43:30;27.40;99.90
56322;DHT22;42227;6.376;-10.782;2023-12-20T01:46:07;27.40;99.90
56322;DHT22;42227;6.376;-10.782;2023-12-20T01:48:36;27.00;99.90
56322;DHT22;42227;6.376;-10.782;2023-12-20T01:51:04;26.90;99.90
56322;DHT22;42227;6.376;-10.782;2023-12-20T01:53:33;26.70;99.90
56322;DHT22;42227;6.376;-10.782;2023-12-20T01:56:02;26.70;99.90
56322;DHT22;42227;6.376;-10.782;2023-12-20T01:58:31;27.10;99.90
56322;DHT22;42227;6.376;-10.782;2023-12-20T02:00:59;27.40;99.90
56322;DHT22;42227;6.376;-10.782;2023-12-20T02:03:28;27.20;99.90
56322;DHT22;42227;6.376;-10.782;2023-12-20T02:05:56;27.00;99.90
56322;DHT22;42227;6.376;-10.782;2023-12-20T02:08:24;26.80;99.90
56322;DHT22;42227;6.376;-10.782;2023-12-20T02:10:53;26.70;99.90
56322;DHT22;42227;6.376;-10.782;2023-12-20T02:13:22;26.60;99.90
56322;DHT22;42227;6.376;-10.782;2023-12-20T02:15:50;26.70;99.90
56322;DHT22;42227;6.376;-10.782;2023-12-20T02:18:19;26.90;99.90
56322;DHT22;42227;6.376;-10.782;2023-12-20T02:20:47;26.90;99.90
56322;DHT22;42227;6.376;-10.782;2023-12-20T02:23:16;26.70;99.90
56322;DHT22;42227;6.376;-10.782;2023-12-20T02:25:44;26.60;99.90
56322;DHT22;42227;6.376;-10.782;2023-12-20T02:28:13;26.40;99.90
56322;DHT22;42227;6.376;-10.782;2023-12-20T02:30:41;26.40;99.90
56322;DHT22;42227;6.376;-10.782;2023-12-20T02:33:12;26.70;99.90
56322;DHT22;42227;6.376;-10.782;2023-12-20T02:35:41;26.80;99.90
56322;DHT22;42227;6.376;-10.782;2023-12-20T02:38:10;26.70;99.90
56322;DHT22;42227;6.376;-10.782;2023-12-20T02:40:38;26.50;99.90
56322;DHT22;42227;6.376;-10.782;2023-12-20T02:43:06;26.30;99.90
56322;DHT22;42227;6.376;-10.782;2023-12-20T02:45:35;26.20;99.90
56322;DHT22;42227;6.376;-10.782;2023-12-20T02:48:03;26.20;99.90
56322;DHT22;42227;6.376;-10.782;2023-12-20T02:50:32;26.30;99.90
56322;DHT22;42227;6.376;-10.782;2023-12-20T02:53:00;26.40;99.90
56322;DHT22;42227;6.376;-10.782;2023-12-20T02:55:28;26.50;99.90
56322;DHT22;42227;6.376;-10.782;2023-12-20T02:57:57;26.30;99.90
56322;DHT22;42227;6.376;-10.782;2023-12-20T03:00:25;26.30;99.90
56322;DHT22;42227;6.376;-10.782;2023-12-20T03:02:54;26.20;99.90
56322;DHT22;42227;6.376;-10.782;2023-12-20T03:05:23;26.20;99.90
56322;DHT22;42227;6.376;-10.782;2023-12-20T03:07:52;26.30;99.90
56322;DHT22;42227;6.376;-10.782;2023-12-20T03:10:20;26.60;99.90
56322;DHT22;42227;6.376;-10.782;2023-12-20T03:12:54;26.60;99.90
56322;DHT22;42227;6.376;-10.782;2023-12-20T03:15:22;26.40;99.90
56322;DHT22;42227;6.376;-10.782;2023-12-20T03:17:50;26.30;99.90
56322;DHT22;42227;6.376;-10.782;2023-12-20T03:20:19;26.30;99.90
56322;DHT22;42227;6.376;-10.782;2023-12-20T03:22:47;26.20;99.90
56322;DHT22;42227;6.376;-10.782;2023-12-20T03:25:16;26.50;99.90
56322;DHT22;42227;6.376;-10.782;2023-12-20T03:27:47;26.80;99.90
56322;DHT22;42227;6.376;-10.782;2023-12-20T03:30:16;26.90;99.90
56322;DHT22;42227;6.376;-10.782;2023-12-20T03:32:45;26.60;99.90
56322;DHT22;42227;6.376;-10.782;2023-12-20T03:35:13;26.30;99.90
56322;DHT22;42227;6.376;-10.782;2023-12-20T03:37:42;26.20;99.90
56322;DHT22;42227;6.376;-10.782;2023-12-20T03:40:11;26.20;99.90
56322;DHT22;42227;6.376;-10.782;2023-12-20T03:42:39;26.40;99.90
56322;DHT22;42227;6.376;-10.782;2023-12-20T03:45:08;26.70;99.90
56322;DHT22;42227;6.376;-10.782;2023-12-20T03:47:37;26.80;99.90
56322;DHT22;42227;6.376;-10.782;2023-12-20T03:50:05;26.50;99.90
56322;DHT22;42227;6.376;-10.782;2023-12-20T03:52:34;26.30;99.90
56322;DHT22;42227;6.376;-10.782;2023-12-20T03:55:03;26.10;99.90
56322;DHT22;42227;6.376;-10.782;2023-12-20T03:57:31;26.10;99.90
56322;DHT22;42227;6.376;-10.782;2023-12-20T03:59:59;26.10;99.90
56322;DHT22;42227;6.376;-10.782;2023-12-20T04:02:41;26.40;99.90
56322;DHT22;42227;6.376;-10.782;2023-12-20T04:05:10;26.70;99.90
56322;DHT22;42227;6.376;-10.782;2023-12-20T04:07:39;26.60;99.90
56322;DHT22;42227;6.376;-10.782;2023-12-20T04:10:07;26.30;99.90
56322;DHT22;42227;6.376;-10.782;2023-12-20T04:12:36;26.10;99.90
56322;DHT22;42227;6.376;-10.782;2023-12-20T04:15:05;26.00;99.90
56322;DHT22;42227;6.376;-10.782;2023-12-20T04:17:33;25.90;99.90
56322;DHT22;42227;6.376;-10.782;2023-12-20T04:20:01;26.30;99.90
56322;DHT22;42227;6.376;-10.782;2023-12-20T04:22:30;26.60;99.90
56322;DHT22;42227;6.376;-10.782;2023-12-20T04:24:58;26.40;99.90
56322;DHT22;42227;6.376;-10.782;2023-12-20T04:27:27;26.10;99.90
56322;DHT22;42227;6.376;-10.782;2023-12-20T04:29:55;26.00;99.90
56322;DHT22;42227;6.376;-10.782;2023-12-20T04:32:23;25.90;99.90
56322;DHT22;42227;6.376;-10.782;2023-12-20T04:34:51;25.80;99.90
56322;DHT22;42227;6.376;-10.782;2023-12-20T04:37:20;26.00;99.90
56322;DHT22;42227;6.376;-10.782;2023-12-20T04:39:48;26.20;99.90
56322;DHT22;42227;6.376;-10.782;2023-12-20T04:42:17;26.40;99.90
56322;DHT22;42227;6.376;-10.782;2023-12-20T04:44:45;26.10;99.90
56322;DHT22;42227;6.376;-10.782;2023-12-20T04:47:13;25.90;99.90
56322;DHT22;42227;6.376;-10.782;2023-12-20T04:49:42;25.80;99.90
56322;DHT22;42227;6.376;-10.782;2023-12-20T04:52:10;25.70;99.90
56322;DHT22;42227;6.376;-10.782;2023-12-20T04:54:39;25.70;99.90
56322;DHT22;42227;6.376;-10.782;2023-12-20T04:57:11;26.10;99.90
56322;DHT22;42227;6.376;-10.782;2023-12-20T04:59:39;26.10;99.90
56322;DHT22;42227;6.376;-10.782;2023-12-20T05:02:07;25.90;99.90
56322;DHT22;42227;6.376;-10.782;2023-12-20T05:04:35;25.60;99.90
56322;DHT22;42227;6.376;-10.782;2023-12-20T05:07:04;25.40;99.90
56322;DHT22;42227;6.376;-10.782;2023-12-20T05:09:33;25.20;99.90
56322;DHT22;42227;6.376;-10.782;2023-12-20T05:12:01;25.30;99.90
56322;DHT22;42227;6.376;-10.782;2023-12-20T05:14:30;25.30;99.90
56322;DHT22;42227;6.376;-10.782;2023-12-20T05:16:58;25.50;99.90
56322;DHT22;42227;6.376;-10.782;2023-12-20T05:19:26;25.50;99.90
56322;DHT22;42227;6.376;-10.782;2023-12-20T05:21:55;25.20;99.90
56322;DHT22;42227;6.376;-10.782;2023-12-20T05:24:23;25.00;99.90
56322;DHT22;42227;6.376;-10.782;2023-12-20T05:26:52;25.00;99.90
56322;DHT22;42227;6.376;-10.782;2023-12-20T05:29:20;25.00;99.90
56322;DHT22;42227;6.376;-10.782;2023-12-20T05:31:49;25.00;99.90
56322;DHT22;42227;6.376;-10.782;2023-12-20T05:34:17;25.10;99.90
56322;DHT22;42227;6.376;-10.782;2023-12-20T05:36:46;25.20;99.90
56322;DHT22;42227;6.376;-10.782;2023-12-20T05:39:14;25.00;99.90
56322;DHT22;42227;6.376;-10.782;2023-12-20T05:41:43;24.80;99.90
56322;DHT22;42227;6.376;-10.782;2023-12-20T05:44:11;24.80;99.90
56322;DHT22;42227;6.376;-10.782;2023-12-20T05:46:39;24.70;99.90
56322;DHT22;42227;6.376;-10.782;2023-12-20T05:49:08;24.80;99.90
56322;DHT22;42227;6.376;-10.782;2023-12-20T05:51:36;25.00;99.90
56322;DHT22;42227;6.376;-10.782;2023-12-20T05:54:05;25.10;99.90
56322;DHT22;42227;6.376;-10.782;2023-12-20T05:56:33;25.20;99.90
56322;DHT22;42227;6.376;-10.782;2023-12-20T05:59:01;25.00;99.90
56322;DHT22;42227;6.376;-10.782;2023-12-20T06:01:29;24.90;99.90
56322;DHT22;42227;6.376;-10.782;2023-12-20T06:03:58;24.80;99.90
56322;DHT22;42227;6.376;-10.782;2023-12-20T06:06:27;24.80;99.90
56322;DHT22;42227;6.376;-10.782;2023-12-20T06:08:55;24.80;99.90
56322;DHT22;42227;6.376;-10.782;2023-12-20T06:11:24;25.00;99.90
56322;DHT22;42227;6.376;-10.782;2023-12-20T06:13:52;25.20;99.90
56322;DHT22;42227;6.376;-10.782;2023-12-20T06:16:20;25.10;99.90
56322;DHT22;42227;6.376;-10.782;2023-12-20T06:18:49;24.90;99.90
56322;DHT22;42227;6.376;-10.782;2023-12-20T06:21:17;24.70;99.90
56322;DHT22;42227;6.376;-10.782;2023-12-20T06:23:46;24.60;99.90
56322;DHT22;42227;6.376;-10.782;2023-12-20T06:26:14;24.50;99.90
56322;DHT22;42227;6.376;-10.782;2023-12-20T06:28:42;24.40;99.90
56322;DHT22;42227;6.376;-10.782;2023-12-20T06:31:11;24.70;99.90
56322;DHT22;42227;6.376;-10.782;2023-12-20T06:33:39;24.70;99.90
56322;DHT22;42227;6.376;-10.782;2023-12-20T06:36:11;24.50;99.90
56322;DHT22;42227;6.376;-10.782;2023-12-20T06:38:40;24.30;99.90
56322;DHT22;42227;6.376;-10.782;2023-12-20T06:41:08;24.20;99.90
56322;DHT22;42227;6.376;-10.782;2023-12-20T06:43:36;24.10;99.90
56322;DHT22;42227;6.376;-10.782;2023-12-20T06:46:16;24.10;99.90
56322;DHT22;42227;6.376;-10.782;2023-12-20T06:48:45;24.30;99.90
56322;DHT22;42227;6.376;-10.782;2023-12-20T06:51:17;24.60;99.90
56322;DHT22;42227;6.376;-10.782;2023-12-20T06:53:46;24.60;99.90
56322;DHT22;42227;6.376;-10.782;2023-12-20T06:56:14;24.40;99.90
56322;DHT22;42227;6.376;-10.782;2023-12-20T06:58:46;24.20;99.90
56322;DHT22;42227;6.376;-10.782;2023-12-20T07:01:15;24.10;99.90
56322;DHT22;42227;6.376;-10.782;2023-12-20T07:03:44;24.10;99.90
56322;DHT22;42227;6.376;-10.782;2023-12-20T07:06:12;24.00;99.90
56322;DHT22;42227;6.376;-10.782;2023-12-20T07:08:40;24.20;99.90
56322;DHT22;42227;6.376;-10.782;2023-12-20T07:11:09;24.50;99.90
56322;DHT22;42227;6.376;-10.782;2023-12-20T07:13:37;24.60;99.90
56322;DHT22;42227;6.376;-10.782;2023-12-20T07:16:06;24.50;99.90
56322;DHT22;42227;6.376;-10.782;2023-12-20T07:18:35;24.30;99.90
56322;DHT22;42227;6.376;-10.782;2023-12-20T07:21:03;24.40;99.90
56322;DHT22;42227;6.376;-10.782;2023-12-20T07:23:32;24.50;99.90
56322;DHT22;42227;6.376;-10.782;2023-12-20T07:26:00;24.70;99.90
56322;DHT22;42227;6.376;-10.782;2023-12-20T07:28:28;24.90;99.90
56322;DHT22;42227;6.376;-10.782;2023-12-20T07:30:57;25.10;99.90
56322;DHT22;42227;6.376;-10.782;2023-12-20T07:33:25;25.20;99.90
56322;DHT22;42227;6.376;-10.782;2023-12-20T07:35:54;25.20;99.90
56322;DHT22;42227;6.376;-10.782;2023-12-20T07:38:23;25.20;99.90
56322;DHT22;42227;6.376;-10.782;2023-12-20T07:40:52;25.30;99.90
56322;DHT22;42227;6.376;-10.782;2023-12-20T07:43:20;25.50;99.90
56322;DHT22;42227;6.376;-10.782;2023-12-20T07:45:48;25.60;99.90
56322;DHT22;42227;6.376;-10.782;2023-12-20T07:48:17;25.80;99.90
56322;DHT22;42227;6.376;-10.782;2023-12-20T07:50:45;25.80;99.90
56322;DHT22;42227;6.376;-10.782;2023-12-20T07:53:14;25.80;99.90
56322;DHT22;42227;6.376;-10.782;2023-12-20T07:55:42;25.90;99.90
56322;DHT22;42227;6.376;-10.782;2023-12-20T07:58:10;26.20;99.90
56322;DHT22;42227;6.376;-10.782;2023-12-20T08:00:39;26.00;99.90
56322;DHT22;42227;6.376;-10.782;2023-12-20T08:03:07;26.20;99.90
56322;DHT22;42227;6.376;-10.782;2023-12-20T08:05:35;26.70;99.90
56322;DHT22;42227;6.376;-10.782;2023-12-20T08:08:04;26.90;99.90
56322;DHT22;42227;6.376;-10.782;2023-12-20T08:10:33;28.00;99.90
56322;DHT22;42227;6.376;-10.782;2023-12-20T08:13:01;29.50;86.70
56322;DHT22;42227;6.376;-10.782;2023-12-20T08:18:19;31.10;1.00
56322;DHT22;42227;6.376;-10.782;2023-12-20T08:20:47;31.20;1.00
56322;DHT22;42227;6.376;-10.782;2023-12-20T08:23:16;30.60;4.00
56322;DHT22;42227;6.376;-10.782;2023-12-20T08:25:44;30.90;11.90
56322;DHT22;42227;6.376;-10.782;2023-12-20T08:28:13;30.80;5.90
56322;DHT22;42227;6.376;-10.782;2023-12-20T08:30:41;30.30;17.70
56322;DHT22;42227;6.376;-10.782;2023-12-20T08:33:10;30.60;5.30
56322;DHT22;42227;6.376;-10.782;2023-12-20T08:35:41;30.60;9.70
56322;DHT22;42227;6.376;-10.782;2023-12-20T08:38:10;30.90;1.60
56322;DHT22;42227;6.376;-10.782;2023-12-20T08:40:41;30.60;1.00
56322;DHT22;42227;6.376;-10.782;2023-12-20T08:43:09;30.70;1.00
56322;DHT22;42227;6.376;-10.782;2023-12-20T08:45:38;31.00;1.00
56322;DHT22;42227;6.376;-10.782;2023-12-20T08:48:07;31.00;1.00
56322;DHT22;42227;6.376;-10.782;2023-12-20T08:50:36;30.80;1.00
56322;DHT22;42227;6.376;-10.782;2023-12-20T08:53:05;29.50;9.20
56322;DHT22;42227;6.376;-10.782;2023-12-20T08:55:33;30.50;1.00
56322;DHT22;42227;6.376;-10.782;2023-12-20T08:58:02;31.00;1.00
56322;DHT22;42227;6.376;-10.782;2023-12-20T09:00:30;30.60;1.00
56322;DHT22;42227;6.376;-10.782;2023-12-20T09:02:59;30.80;1.00
56322;DHT22;42227;6.376;-10.782;2023-12-20T09:05:27;30.30;1.00
56322;DHT22;42227;6.376;-10.782;2023-12-20T09:07:56;29.60;1.00
56322;DHT22;42227;6.376;-10.782;2023-12-20T09:10:27;29.60;1.00
56322;DHT22;42227;6.376;-10.782;2023-12-20T09:12:56;29.10;2.30
56322;DHT22;42227;6.376;-10.782;2023-12-20T09:15:26;29.40;1.00
56322;DHT22;42227;6.376;-10.782;2023-12-20T09:17:57;29.90;1.00
56322;DHT22;42227;6.376;-10.782;2023-12-20T09:20:26;29.90;1.00
56322;DHT22;42227;6.376;-10.782;2023-12-20T09:22:54;29.60;1.00
56322;DHT22;42227;6.376;-10.782;2023-12-20T09:25:23;29.70;1.00
56322;DHT22;42227;6.376;-10.782;2023-12-20T09:27:52;29.50;1.00
56322;DHT22;42227;6.376;-10.782;2023-12-20T09:30:21;29.30;1.00
56322;DHT22;42227;6.376;-10.782;2023-12-20T09:32:55;29.30;1.00
56322;DHT22;42227;6.376;-10.782;2023-12-20T09:35:23;29.40;1.00
56322;DHT22;42227;6.376;-10.782;2023-12-20T09:37:52;29.50;1.00
56322;DHT22;42227;6.376;-10.782;2023-12-20T09:40:21;29.50;1.00
56322;DHT22;42227;6.376;-10.782;2023-12-20T09:42:57;29.60;1.00
56322;DHT22;42227;6.376;-10.782;2023-12-20T09:45:26;29.60;1.00
56322;DHT22;42227;6.376;-10.782;2023-12-20T09:47:55;29.30;1.00
56322;DHT22;42227;6.376;-10.782;2023-12-20T09:50:25;29.30;1.00
56322;DHT22;42227;6.376;-10.782;2023-12-20T09:52:54;29.30;1.00
56322;DHT22;42227;6.376;-10.782;2023-12-20T09:55:25;29.20;1.00
56322;DHT22;42227;6.376;-10.782;2023-12-20T09:57:54;29.40;1.00
56322;DHT22;42227;6.376;-10.782;2023-12-20T10:00:22;29.50;1.00
56322;DHT22;42227;6.376;-10.782;2023-12-20T10:02:57;29.60;1.00
56322;DHT22;42227;6.376;-10.782;2023-12-20T10:05:30;29.60;1.00
56322;DHT22;42227;6.376;-10.782;2023-12-20T10:08:01;29.60;1.00
56322;DHT22;42227;6.376;-10.782;2023-12-20T10:10:30;29.90;1.00
56322;DHT22;42227;6.376;-10.782;2023-12-20T10:13:12;29.50;1.00
56322;DHT22;42227;6.376;-10.782;2023-12-20T10:15:41;29.20;1.00
56322;DHT22;42227;6.376;-10.782;2023-12-20T10:18:11;29.70;1.00
56322;DHT22;42227;6.376;-10.782;2023-12-20T10:20:41;29.80;1.00
56322;DHT22;42227;6.376;-10.782;2023-12-20T10:23:10;29.80;1.00
56322;DHT22;42227;6.376;-10.782;2023-12-20T10:25:39;29.90;1.00
56322;DHT22;42227;6.376;-10.782;2023-12-20T10:28:15;30.00;1.00
56322;DHT22;42227;6.376;-10.782;2023-12-20T10:30:44;29.80;99.90
56322;DHT22;42227;6.376;-10.782;2023-12-20T10:33:12;30.20;1.00
56322;DHT22;42227;6.376;-10.782;2023-12-20T10:35:41;30.10;99.90
56322;DHT22;42227;6.376;-10.782;2023-12-20T10:38:15;29.70;99.90
56322;DHT22;42227;6.376;-10.782;2023-12-20T10:40:45;30.10;99.90
56322;DHT22;42227;6.376;-10.782;2023-12-20T10:43:15;30.20;99.90
56322;DHT22;42227;6.376;-10.782;2023-12-20T10:45:43;30.40;99.90
56322;DHT22;42227;6.376;-10.782;2023-12-20T10:48:12;30.50;99.90
56322;DHT22;42227;6.376;-10.782;2023-12-20T10:50:41;30.30;99.90
56322;DHT22;42227;6.376;-10.782;2023-12-20T10:53:09;30.10;99.90
56322;DHT22;42227;6.376;-10.782;2023-12-20T10:55:38;30.10;99.90
56322;DHT22;42227;6.376;-10.782;2023-12-20T10:58:08;30.30;99.90
56322;DHT22;42227;6.376;-10.782;2023-12-20T11:00:41;30.10;99.90
56322;DHT22;42227;6.376;-10.782;2023-12-20T11:03:12;30.20;99.90
56322;DHT22;42227;6.376;-10.782;2023-12-20T11:06:13;30.30;99.90
56322;DHT22;42227;6.376;-10.782;2023-12-20T11:09:19;30.20;99.90
56322;DHT22;42227;6.376;-10.782;2023-12-20T11:12:13;30.10;99.90
56322;DHT22;42227;6.376;-10.782;2023-12-20T11:14:49;30.30;99.90
56322;DHT22;42227;6.376;-10.782;2023-12-20T11:17:18;30.30;99.90
56322;DHT22;42227;6.376;-10.782;2023-12-20T11:22:25;30.30;99.90
56322;DHT22;42227;6.376;-10.782;2023-12-20T11:24:54;30.40;99.90
56322;DHT22;42227;6.376;-10.782;2023-12-20T11:27:26;30.50;99.90
56322;DHT22;42227;6.376;-10.782;2023-12-20T11:29:58;30.60;99.90
56322;DHT22;42227;6.376;-10.782;2023-12-20T11:37:38;31.00;99.90
56322;DHT22;42227;6.376;-10.782;2023-12-20T11:40:08;30.90;99.90
56322;DHT22;42227;6.376;-10.782;2023-12-20T11:42:40;30.60;99.90
56322;DHT22;42227;6.376;-10.782;2023-12-20T11:45:16;30.50;99.90
56322;DHT22;42227;6.376;-10.782;2023-12-20T11:47:47;30.40;99.90
56322;DHT22;42227;6.376;-10.782;2023-12-20T11:50:19;30.50;99.90
56322;DHT22;42227;6.376;-10.782;2023-12-20T11:52:49;30.70;99.90
56322;DHT22;42227;6.376;-10.782;2023-12-20T11:55:17;30.60;99.90
56322;DHT22;42227;6.376;-10.782;2023-12-20T11:57:46;30.70;99.90
56322;DHT22;42227;6.376;-10.782;2023-12-20T12:00:15;30.60;99.90
56322;DHT22;42227;6.376;-10.782;2023-12-20T12:02:45;30.50;99.90
56322;DHT22;42227;6.376;-10.782;2023-12-20T12:05:23;30.40;99.90
56322;DHT22;42227;6.376;-10.782;2023-12-20T12:07:51;30.60;99.90
56322;DHT22;42227;6.376;-10.782;2023-12-20T12:10:19;30.80;99.90
56322;DHT22;42227;6.376;-10.782;2023-12-20T12:12:48;30.80;99.90
56322;DHT22;42227;6.376;-10.782;2023-12-20T12:15:16;30.80;99.90
56322;DHT22;42227;6.376;-10.782;2023-12-20T12:17:53;30.80;99.90
56322;DHT22;42227;6.376;-10.782;2023-12-20T12:20:22;30.60;99.90
56322;DHT22;42227;6.376;-10.782;2023-12-20T12:23:04;30.50;99.90
56322;DHT22;42227;6.376;-10.782;2023-12-20T12:25:36;30.80;99.90
56322;DHT22;42227;6.376;-10.782;2023-12-20T12:28:10;31.10;99.90
56322;DHT22;42227;6.376;-10.782;2023-12-20T12:30:38;31.20;99.90
56322;DHT22;42227;6.376;-10.782;2023-12-20T12:33:20;30.90;99.90
56322;DHT22;42227;6.376;-10.782;2023-12-20T12:35:48;31.00;99.90
56322;DHT22;42227;6.376;-10.782;2023-12-20T12:38:20;31.10;99.90
56322;DHT22;42227;6.376;-10.782;2023-12-20T12:40:50;31.00;99.90
56322;DHT22;42227;6.376;-10.782;2023-12-20T12:43:18;31.20;99.90
56322;DHT22;42227;6.376;-10.782;2023-12-20T12:45:47;31.00;99.90
56322;DHT22;42227;6.376;-10.782;2023-12-20T12:48:15;31.20;99.90
56322;DHT22;42227;6.376;-10.782;2023-12-20T12:50:45;31.10;99.90
56322;DHT22;42227;6.376;-10.782;2023-12-20T12:53:13;31.30;99.90
56322;DHT22;42227;6.376;-10.782;2023-12-20T12:55:41;31.20;99.90
56322;DHT22;42227;6.376;-10.782;2023-12-20T12:58:10;31.00;99.90
56322;DHT22;42227;6.376;-10.782;2023-12-20T13:00:38;31.10;99.90
56322;DHT22;42227;6.376;-10.782;2023-12-20T13:03:06;31.20;99.90
56322;DHT22;42227;6.376;-10.782;2023-12-20T13:05:35;31.30;99.90
56322;DHT22;42227;6.376;-10.782;2023-12-20T13:08:07;31.60;99.90
56322;DHT22;42227;6.376;-10.782;2023-12-20T13:10:36;31.30;99.90
56322;DHT22;42227;6.376;-10.782;2023-12-20T13:13:04;31.20;99.90
56322;DHT22;42227;6.376;-10.782;2023-12-20T13:15:33;31.30;99.90
56322;DHT22;42227;6.376;-10.782;2023-12-20T13:18:04;31.40;99.90
56322;DHT22;42227;6.376;-10.782;2023-12-20T13:20:33;31.50;99.90
56322;DHT22;42227;6.376;-10.782;2023-12-20T13:23:01;31.70;99.90
56322;DHT22;42227;6.376;-10.782;2023-12-20T13:25:29;31.50;99.90
56322;DHT22;42227;6.376;-10.782;2023-12-20T13:27:58;31.50;99.90
56322;DHT22;42227;6.376;-10.782;2023-12-20T13:30:26;31.50;99.90
56322;DHT22;42227;6.376;-10.782;2023-12-20T13:32:55;31.50;99.90
56322;DHT22;42227;6.376;-10.782;2023-12-20T13:35:23;31.50;99.90
56322;DHT22;42227;6.376;-10.782;2023-12-20T13:37:52;31.80;99.90
56322;DHT22;42227;6.376;-10.782;2023-12-20T13:40:20;31.80;99.90
56322;DHT22;42227;6.376;-10.782;2023-12-20T13:42:49;31.70;99.90
56322;DHT22;42227;6.376;-10.782;2023-12-20T13:45:17;31.60;99.90
56322;DHT22;42227;6.376;-10.782;2023-12-20T13:47:46;31.60;99.90
56322;DHT22;42227;6.376;-10.782;2023-12-20T13:50:14;31.70;99.90
56322;DHT22;42227;6.376;-10.782;2023-12-20T13:52:43;31.60;99.90
56322;DHT22;42227;6.376;-10.782;2023-12-20T13:55:11;31.90;99.90
56322;DHT22;42227;6.376;-10.782;2023-12-20T13:57:40;32.20;99.90
56322;DHT22;42227;6.376;-10.782;2023-12-20T14:00:22;32.20;99.90
56322;DHT22;42227;6.376;-10.782;2023-12-20T14:02:51;32.10;99.90
56322;DHT22;42227;6.376;-10.782;2023-12-20T14:05:19;31.90;99.90
56322;DHT22;42227;6.376;-10.782;2023-12-20T14:07:51;31.80;99.90
56322;DHT22;42227;6.376;-10.782;2023-12-20T14:10:20;31.60;99.90
56322;DHT22;42227;6.376;-10.782;2023-12-20T14:12:48;31.80;99.90
56322;DHT22;42227;6.376;-10.782;2023-12-20T14:15:17;31.90;99.90
56322;DHT22;42227;6.376;-10.782;2023-12-20T14:17:45;31.90;99.90
56322;DHT22;42227;6.376;-10.782;2023-12-20T14:20:14;31.80;99.90
56322;DHT22;42227;6.376;-10.782;2023-12-20T14:22:42;31.60;99.90
56322;DHT22;42227;6.376;-10.782;2023-12-20T14:25:12;31.50;99.90
56322;DHT22;42227;6.376;-10.782;2023-12-20T14:27:42;31.60;99.90
56322;DHT22;42227;6.376;-10.782;2023-12-20T14:30:12;31.80;99.90
56322;DHT22;42227;6.376;-10.782;2023-12-20T14:32:41;31.90;99.90
56322;DHT22;42227;6.376;-10.782;2023-12-20T14:35:09;32.20;99.90
56322;DHT22;42227;6.376;-10.782;2023-12-20T14:37:38;32.00;99.90
56322;DHT22;42227;6.376;-10.782;2023-12-20T14:40:07;32.30;99.90
56322;DHT22;42227;6.376;-10.782;2023-12-20T14:42:36;32.20;99.90
56322;DHT22;42227;6.376;-10.782;2023-12-20T14:45:05;32.20;99.90
56322;DHT22;42227;6.376;-10.782;2023-12-20T14:47:33;32.10;99.90
56322;DHT22;42227;6.376;-10.782;2023-12-20T14:50:05;32.00;99.90
56322;DHT22;42227;6.376;-10.782;2023-12-20T14:52:34;32.00;99.90
56322;DHT22;42227;6.376;-10.782;2023-12-20T14:55:03;31.80;99.90
56322;DHT22;42227;6.376;-10.782;2023-12-20T14:57:32;31.60;99.90
56322;DHT22;42227;6.376;-10.782;2023-12-20T15:00:00;31.90;99.90
56322;DHT22;42227;6.376;-10.782;2023-12-20T15:02:28;32.00;99.90
56322;DHT22;42227;6.376;-10.782;2023-12-20T15:04:57;31.80;99.90
56322;DHT22;42227;6.376;-10.782;2023-12-20T15:07:27;31.60;99.90
56322;DHT22;42227;6.376;-10.782;2023-12-20T15:09:56;31.60;99.90
56322;DHT22;42227;6.376;-10.782;2023-12-20T15:12:24;31.50;99.90
56322;DHT22;42227;6.376;-10.782;2023-12-20T15:14:53;31.40;99.90
56322;DHT22;42227;6.376;-10.782;2023-12-20T15:17:21;31.80;99.90
56322;DHT22;42227;6.376;-10.782;2023-12-20T15:19:50;31.70;99.90
56322;DHT22;42227;6.376;-10.782;2023-12-20T15:22:18;31.50;99.90
56322;DHT22;42227;6.376;-10.782;2023-12-20T15:24:47;31.40;99.90
56322;DHT22;42227;6.376;-10.782;2023-12-20T15:27:15;31.30;99.90
56322;DHT22;42227;6.376;-10.782;2023-12-20T15:29:44;31.60;99.90
56322;DHT22;42227;6.376;-10.782;2023-12-20T15:32:12;31.50;99.90
56322;DHT22;42227;6.376;-10.782;2023-12-20T15:34:40;31.70;99.90
56322;DHT22;42227;6.376;-10.782;2023-12-20T15:37:09;31.80;99.90
56322;DHT22;42227;6.376;-10.782;2023-12-20T15:39:37;31.80;1.00
56322;DHT22;42227;6.376;-10.782;2023-12-20T15:42:06;31.60;1.00